Time;durP1;ratioP1;P1;durP2;ratioP2;P2;SDS_P1;SDS_P2;PMS_P1;PMS_P2;Temp;Humidity;BMP_temperature;BMP_pressure;BME280_temperature;BME280_humidity;BME280_pressure;Samples;Min_cycle;Max_cycle;Signal;HPM_P1;HPM_P2
2022/09/18 00:01:46;;;;;;;3.00;1.80;;;;;;;;;;5126633;27;20277;-78
2022/09/18 00:04:14;;;;;;;2.37;1.80;;;;;;;;;;5118918;27;20228;-78
2022/09/18 00:06:42;;;;;;;2.53;1.80;;;;;;;;;;5118663;27;20564;-78
2022/09/18 00:09:10;;;;;;;4.13;2.13;;;;;;;;;;5129359;27;20285;-78
2022/09/18 00:11:40;;;;;;;6.60;2.03;;;;;;;;;;5126111;27;20998;-78
2022/09/18 00:14:09;;;;;;;3.87;3.00;;;;;;;;;;5121153;27;20236;-78
2022/09/18 00:16:36;;;;;;;4.40;3.07;;;;;;;;;;5124998;27;20281;-78
2022/09/18 00:19:04;;;;;;;3.80;3.30;;;;;;;;;;5121637;27;20306;-78
2022/09/18 00:21:34;;;;;;;3.23;2.47;;;;;;;;;;5123414;27;20856;-78
2022/09/18 00:24:02;;;;;;;3.20;2.30;;;;;;;;;;5117299;27;20572;-77
2022/09/18 00:26:29;;;;;;;3.83;2.53;;;;;;;;;;5126632;27;20230;-77
2022/09/18 00:28:59;;;;;;;5.13;2.50;;;;;;;;;;5125813;27;20202;-78
2022/09/18 00:31:28;;;;;;;6.60;2.60;;;;;;;;;;5125394;27;20681;-77
2022/09/18 00:33:55;;;;;;;3.43;2.70;;;;;;;;;;5124733;27;20201;-77
2022/09/18 00:36:23;;;;;;;4.67;2.70;;;;;;;;;;5126601;27;20223;-78
2022/09/18 00:38:50;;;;;;;4.20;2.80;;;;;;;;;;5120986;27;20257;-78
2022/09/18 00:41:22;;;;;;;4.17;2.80;;;;;;;;;;5135817;27;20203;-78
2022/09/18 00:43:50;;;;;;;4.57;2.93;;;;;;;;;;5131529;27;20196;-78
2022/09/18 00:46:22;;;;;;;4.00;2.60;;;;;;;;;;5126171;27;20597;-78
2022/09/18 00:48:56;;;;;;;4.37;2.57;;;;;;;;;;5125033;27;20620;-78
2022/09/18 00:51:25;;;;;;;2.93;2.40;;;;;;;;;;5131212;27;20195;-78
2022/09/18 00:53:56;;;;;;;3.87;2.70;;;;;;;;;;5126450;27;20306;-78
2022/09/18 00:56:24;;;;;;;3.70;2.43;;;;;;;;;;5127659;27;20282;-78
2022/09/18 00:58:52;;;;;;;4.20;3.03;;;;;;;;;;5116606;27;20224;-78
2022/09/18 01:01:20;;;;;;;5.97;3.03;;;;;;;;;;5134243;27;20232;-78
2022/09/18 01:03:47;;;;;;;4.93;2.73;;;;;;;;;;5134683;27;20231;-78
2022/09/18 01:06:15;;;;;;;5.70;2.87;;;;;;;;;;5126425;27;20235;-78
2022/09/18 01:08:48;;;;;;;7.73;2.73;;;;;;;;;;5114197;27;20602;-78
2022/09/18 01:11:21;;;;;;;3.40;2.67;;;;;;;;;;5113419;28;20291;-78
2022/09/18 01:13:54;;;;;;;3.10;2.47;;;;;;;;;;5113487;28;20235;-78
2022/09/18 01:16:26;;;;;;;4.07;2.73;;;;;;;;;;5114218;28;20290;-78
2022/09/18 01:18:57;;;;;;;4.57;2.30;;;;;;;;;;5114657;28;20261;-78
2022/09/18 01:21:29;;;;;;;5.30;2.90;;;;;;;;;;5125785;27;20190;-78
2022/09/18 01:24:13;;;;;;;4.40;2.40;;;;;;;;;;5120470;27;20284;-77
2022/09/18 01:26:45;;;;;;;2.57;2.30;;;;;;;;;;5130395;27;20225;-78
2022/09/18 01:29:19;;;;;;;2.57;2.27;;;;;;;;;;5120276;27;20287;-77
2022/09/18 01:31:49;;;;;;;4.27;2.73;;;;;;;;;;5122634;27;20240;-77
2022/09/18 01:34:21;;;;;;;4.30;2.70;;;;;;;;;;5123026;27;20236;-78
2022/09/18 01:36:50;;;;;;;4.20;2.50;;;;;;;;;;5121772;27;20201;-78
2022/09/18 01:39:20;;;;;;;4.30;2.47;;;;;;;;;;5129119;27;20299;-78
2022/09/18 01:41:50;;;;;;;2.83;2.23;;;;;;;;;;5124255;27;20268;-78
2022/09/18 01:44:20;;;;;;;3.67;2.57;;;;;;;;;;5118685;27;20216;-78
2022/09/18 01:46:49;;;;;;;2.77;2.47;;;;;;;;;;5113833;27;20252;-78
2022/09/18 01:49:18;;;;;;;5.23;2.50;;;;;;;;;;5127184;27;20255;-78
2022/09/18 01:51:48;;;;;;;5.70;2.60;;;;;;;;;;5121128;27;20241;-77
2022/09/18 01:54:17;;;;;;;5.30;2.47;;;;;;;;;;5113740;28;20201;-78
2022/09/18 01:56:46;;;;;;;3.13;2.30;;;;;;;;;;5113452;27;20598;-78
2022/09/18 01:59:16;;;;;;;3.70;2.50;;;;;;;;;;5129690;27;20216;-78
2022/09/18 02:01:45;;;;;;;3.47;2.07;;;;;;;;;;5134335;27;20220;-78
2022/09/18 02:04:13;;;;;;;2.50;2.27;;;;;;;;;;5134086;27;20195;-78
2022/09/18 02:06:42;;;;;;;4.20;2.43;;;;;;;;;;5134125;27;20230;-78
2022/09/18 02:09:10;;;;;;;3.77;2.80;;;;;;;;;;5133677;27;20280;-78
2022/09/18 02:11:38;;;;;;;4.20;2.50;;;;;;;;;;5123999;27;20353;-78
2022/09/18 02:14:08;;;;;;;3.23;2.30;;;;;;;;;;5133149;27;20614;-78
2022/09/18 02:16:44;;;;;;;3.60;2.67;;;;;;;;;;5133249;27;20233;-78
2022/09/18 02:19:15;;;;;;;2.77;2.40;;;;;;;;;;5132030;27;20258;-78
2022/09/18 02:21:43;;;;;;;3.67;2.50;;;;;;;;;;5120639;27;20281;-78
2022/09/18 02:24:12;;;;;;;4.37;2.50;;;;;;;;;;5129149;27;20310;-78
2022/09/18 02:26:41;;;;;;;3.23;2.33;;;;;;;;;;5129822;27;20267;-78
2022/09/18 02:29:11;;;;;;;4.47;2.70;;;;;;;;;;5122573;27;20239;-78
2022/09/18 02:31:38;;;;;;;6.27;4.80;;;;;;;;;;5123156;28;20654;-78
2022/09/18 02:34:07;;;;;;;4.63;3.50;;;;;;;;;;5133331;27;20251;-78
2022/09/18 02:37:01;;;;;;;3.20;2.90;;;;;;;;;;5124718;27;20281;-78
2022/09/18 02:39:38;;;;;;;3.53;2.57;;;;;;;;;;5087483;27;20204;-78
2022/09/18 02:42:13;;;;;;;4.10;3.10;;;;;;;;;;5129028;28;20207;-78
2022/09/18 02:44:46;;;;;;;4.20;2.43;;;;;;;;;;5119541;27;20291;-78
2022/09/18 02:47:18;;;;;;;5.83;2.90;;;;;;;;;;5118131;28;20660;-78
2022/09/18 02:49:52;;;;;;;3.50;2.60;;;;;;;;;;5119805;27;20232;-78
2022/09/18 02:52:25;;;;;;;3.70;2.90;;;;;;;;;;5112841;28;20232;-78
2022/09/18 02:54:55;;;;;;;3.83;2.83;;;;;;;;;;5112323;28;20208;-78
2022/09/18 02:57:27;;;;;;;5.50;2.90;;;;;;;;;;5112425;28;20653;-78
2022/09/18 02:59:57;;;;;;;3.57;3.00;;;;;;;;;;5121791;28;20287;-79
2022/09/18 03:02:25;;;;;;;3.37;2.97;;;;;;;;;;5120045;27;20616;-78
2022/09/18 03:04:53;;;;;;;5.27;2.93;;;;;;;;;;5129436;28;20235;-78
2022/09/18 03:07:20;;;;;;;4.20;2.67;;;;;;;;;;5115814;27;20196;-78
2022/09/18 03:09:47;;;;;;;3.20;2.63;;;;;;;;;;5133638;27;20232;-79
2022/09/18 03:12:16;;;;;;;3.57;3.27;;;;;;;;;;5133108;27;20317;-78
2022/09/18 03:14:43;;;;;;;6.57;4.50;;;;;;;;;;5126501;27;20209;-78
2022/09/18 03:17:11;;;;;;;4.50;3.87;;;;;;;;;;5128843;27;20232;-78
2022/09/18 03:19:38;;;;;;;3.87;3.37;;;;;;;;;;5125873;27;20217;-79
2022/09/18 03:22:06;;;;;;;3.57;2.63;;;;;;;;;;5128685;28;20306;-78
2022/09/18 03:24:33;;;;;;;3.80;2.97;;;;;;;;;;5132025;27;20229;-78
2022/09/18 03:27:00;;;;;;;3.73;2.80;;;;;;;;;;5126027;27;20949;-79
2022/09/18 03:29:29;;;;;;;3.60;2.53;;;;;;;;;;5119284;27;20622;-79
2022/09/18 03:31:56;;;;;;;3.60;3.20;;;;;;;;;;5125679;27;20239;-78
2022/09/18 03:34:23;;;;;;;4.20;3.10;;;;;;;;;;5124809;27;20201;-79
2022/09/18 03:36:50;;;;;;;6.77;3.00;;;;;;;;;;5122456;27;20558;-78
2022/09/18 03:39:18;;;;;;;2.93;2.60;;;;;;;;;;5116030;28;20320;-78
2022/09/18 03:41:45;;;;;;;3.47;2.83;;;;;;;;;;5127000;27;20224;-78
2022/09/18 03:44:12;;;;;;;3.47;2.50;;;;;;;;;;5136277;27;20278;-78
2022/09/18 03:46:41;;;;;;;4.17;2.80;;;;;;;;;;5117356;27;20236;-78
2022/09/18 03:49:08;;;;;;;4.67;2.80;;;;;;;;;;5129604;27;20195;-77
2022/09/18 03:51:36;;;;;;;2.93;2.50;;;;;;;;;;5117937;27;20749;-78
2022/09/18 03:54:03;;;;;;;2.73;2.40;;;;;;;;;;5131535;27;20733;-78
2022/09/18 03:56:30;;;;;;;2.97;2.67;;;;;;;;;;5116129;27;20231;-79
2022/09/18 03:58:57;;;;;;;4.30;2.57;;;;;;;;;;5117633;27;20335;-78
2022/09/18 04:01:24;;;;;;;4.07;2.53;;;;;;;;;;5129047;27;20249;-78
2022/09/18 04:03:53;;;;;;;3.97;3.30;;;;;;;;;;5118571;27;20232;-78
2022/09/18 04:06:20;;;;;;;2.93;2.73;;;;;;;;;;5130074;27;20205;-78
2022/09/18 04:08:48;;;;;;;3.60;2.60;;;;;;;;;;5124332;27;20188;-78
2022/09/18 04:11:16;;;;;;;3.27;2.70;;;;;;;;;;5126548;27;20203;-78
2022/09/18 04:13:43;;;;;;;5.97;2.97;;;;;;;;;;5120808;27;20291;-78
2022/09/18 04:16:10;;;;;;;6.40;4.50;;;;;;;;;;5129518;27;20238;-78
2022/09/18 04:18:37;;;;;;;5.10;3.70;;;;;;;;;;5136407;27;20263;-77
2022/09/18 04:21:06;;;;;;;4.03;3.43;;;;;;;;;;5132115;27;20238;-78
2022/09/18 04:23:33;;;;;;;4.27;3.30;;;;;;;;;;5118597;27;20301;-78
2022/09/18 04:26:07;;;;;;;3.80;3.20;;;;;;;;;;5117298;27;20256;-78
2022/09/18 04:28:34;;;;;;;4.87;3.23;;;;;;;;;;5136048;27;20202;-78
2022/09/18 04:31:01;;;;;;;2.87;2.67;;;;;;;;;;5121098;27;20235;-78
2022/09/18 04:33:28;;;;;;;3.83;3.37;;;;;;;;;;5126109;27;20217;-78
2022/09/18 04:35:56;;;;;;;3.80;3.37;;;;;;;;;;5119884;27;20669;-78
2022/09/18 04:38:27;;;;;;;4.33;3.37;;;;;;;;;;5130786;27;20215;-78
2022/09/18 04:40:55;;;;;;;3.70;3.37;;;;;;;;;;5129364;27;20545;-78
2022/09/18 04:43:22;;;;;;;3.77;3.37;;;;;;;;;;5134165;27;20202;-78
2022/09/18 04:45:50;;;;;;;3.97;3.20;;;;;;;;;;5130841;27;20300;-78
2022/09/18 04:48:18;;;;;;;4.40;3.20;;;;;;;;;;5114772;27;20285;-78
2022/09/18 04:50:45;;;;;;;4.10;3.10;;;;;;;;;;5114576;28;20683;-78
2022/09/18 04:53:12;;;;;;;3.37;2.97;;;;;;;;;;5114967;28;20199;-78
2022/09/18 04:55:44;;;;;;;3.23;2.97;;;;;;;;;;5124198;27;20224;-78
2022/09/18 04:58:11;;;;;;;3.33;2.93;;;;;;;;;;5130218;27;20223;-78
2022/09/18 05:00:39;;;;;;;5.23;3.00;;;;;;;;;;5125086;27;20629;-78
2022/09/18 05:03:06;;;;;;;4.80;2.80;;;;;;;;;;5120824;27;20206;-78
2022/09/18 05:05:34;;;;;;;3.10;2.80;;;;;;;;;;5131678;27;20299;-78
2022/09/18 05:08:01;;;;;;;3.00;2.70;;;;;;;;;;5118465;27;20652;-78
2022/09/18 05:10:28;;;;;;;4.03;2.73;;;;;;;;;;5127541;27;20227;-78
2022/09/18 05:12:57;;;;;;;4.77;3.10;;;;;;;;;;5129096;27;20280;-78
2022/09/18 05:15:24;;;;;;;4.13;2.60;;;;;;;;;;5120277;27;20281;-78
2022/09/18 05:17:58;;;;;;;3.00;2.70;;;;;;;;;;5124793;27;20238;-78
2022/09/18 05:20:25;;;;;;;4.23;2.90;;;;;;;;;;5120073;27;20194;-78
2022/09/18 05:22:53;;;;;;;4.23;2.93;;;;;;;;;;5118757;27;20236;-78
2022/09/18 05:25:20;;;;;;;3.27;2.97;;;;;;;;;;5114557;27;20202;-78
2022/09/18 05:27:53;;;;;;;3.57;2.87;;;;;;;;;;5114986;27;20254;-78
2022/09/18 05:30:22;;;;;;;3.23;2.87;;;;;;;;;;5114175;28;20663;-78
2022/09/18 05:32:59;;;;;;;3.53;3.13;;;;;;;;;;5113983;27;20202;-78
2022/09/18 05:35:27;;;;;;;3.63;3.07;;;;;;;;;;5118521;27;20191;-78
2022/09/18 05:37:55;;;;;;;5.33;3.30;;;;;;;;;;5125193;27;20288;-78
2022/09/18 05:40:23;;;;;;;4.90;3.10;;;;;;;;;;5116811;27;20246;-78
2022/09/18 05:42:51;;;;;;;4.90;3.50;;;;;;;;;;5125377;27;20198;-78
2022/09/18 05:45:19;;;;;;;3.90;3.50;;;;;;;;;;5122112;27;20199;-78
2022/09/18 05:47:53;;;;;;;3.50;3.20;;;;;;;;;;5122640;27;20227;-78
2022/09/18 05:50:21;;;;;;;3.47;3.03;;;;;;;;;;5127960;27;20246;-78
2022/09/18 05:52:48;;;;;;;4.93;3.03;;;;;;;;;;5121713;27;20196;-78
2022/09/18 05:55:15;;;;;;;3.40;3.10;;;;;;;;;;5118729;27;20225;-78
2022/09/18 05:57:42;;;;;;;3.20;2.90;;;;;;;;;;5121073;27;20301;-78
2022/09/18 06:00:10;;;;;;;3.47;3.10;;;;;;;;;;5121279;27;20288;-78
2022/09/18 06:02:37;;;;;;;3.47;3.13;;;;;;;;;;5121204;27;20733;-78
2022/09/18 06:05:07;;;;;;;5.20;3.20;;;;;;;;;;5121451;27;20607;-78
2022/09/18 06:07:34;;;;;;;4.07;2.93;;;;;;;;;;5121130;27;20214;-78
2022/09/18 06:10:03;;;;;;;4.43;3.20;;;;;;;;;;5118767;27;20282;-78
2022/09/18 06:12:30;;;;;;;3.73;3.20;;;;;;;;;;5129180;27;20198;-78
2022/09/18 06:14:57;;;;;;;3.30;3.00;;;;;;;;;;5119753;27;20292;-77
2022/09/18 06:17:24;;;;;;;4.23;3.20;;;;;;;;;;5116638;27;20213;-77
2022/09/18 06:19:51;;;;;;;3.60;3.13;;;;;;;;;;5112952;28;20215;-78
2022/09/18 06:22:20;;;;;;;3.63;3.27;;;;;;;;;;5123560;27;20226;-78
2022/09/18 06:24:47;;;;;;;4.77;3.57;;;;;;;;;;5117888;27;20228;-78
2022/09/18 06:27:14;;;;;;;4.03;3.40;;;;;;;;;;5112479;27;20373;-78
2022/09/18 06:29:42;;;;;;;4.77;3.80;;;;;;;;;;5120010;27;20224;-78
2022/09/18 06:32:09;;;;;;;3.97;3.53;;;;;;;;;;5116178;27;20208;-78
2022/09/18 06:34:36;;;;;;;5.83;4.10;;;;;;;;;;5115134;28;20279;-79
2022/09/18 06:37:03;;;;;;;5.17;3.80;;;;;;;;;;5124447;27;20227;-78
2022/09/18 06:39:32;;;;;;;4.63;3.77;;;;;;;;;;5122752;27;20220;-78
2022/09/18 06:41:59;;;;;;;5.90;3.70;;;;;;;;;;5123065;28;20591;-78
2022/09/18 06:44:27;;;;;;;4.77;4.00;;;;;;;;;;5123945;27;20196;-78
2022/09/18 06:46:54;;;;;;;4.37;3.70;;;;;;;;;;5130459;27;20249;-78
2022/09/18 06:49:21;;;;;;;4.93;4.10;;;;;;;;;;5112610;28;20224;-78
2022/09/18 06:51:48;;;;;;;3.50;3.20;;;;;;;;;;5117081;28;20718;-79
2022/09/18 06:54:16;;;;;;;3.20;2.90;;;;;;;;;;5112773;28;20204;-79
2022/09/18 06:56:46;;;;;;;2.67;2.37;;;;;;;;;;5113080;28;20206;-79
2022/09/18 06:59:13;;;;;;;3.77;2.20;;;;;;;;;;5111837;28;20261;-79
2022/09/18 07:01:40;;;;;;;3.10;2.13;;;;;;;;;;5125577;27;20228;-79
2022/09/18 07:04:07;;;;;;;3.27;2.20;;;;;;;;;;5134826;27;20224;-79
2022/09/18 07:06:35;;;;;;;3.20;2.47;;;;;;;;;;5122992;27;20236;-79
2022/09/18 07:09:02;;;;;;;2.33;1.90;;;;;;;;;;5136820;27;20708;-79
2022/09/18 07:11:29;;;;;;;2.50;1.90;;;;;;;;;;5127896;27;20198;-79
2022/09/18 07:13:58;;;;;;;2.73;1.83;;;;;;;;;;5127767;27;20222;-79
2022/09/18 07:16:25;;;;;;;2.60;1.80;;;;;;;;;;5126351;27;20718;-79
2022/09/18 07:18:53;;;;;;;2.80;2.00;;;;;;;;;;5124678;27;20269;-79
2022/09/18 07:21:20;;;;;;;2.77;1.57;;;;;;;;;;5130681;27;20204;-79
2022/09/18 07:23:47;;;;;;;2.08;1.75;;;;;;;;;;5127640;27;20227;-77
2022/09/18 07:26:14;;;;;;;2.30;1.80;;;;;;;;;;5135332;27;20228;-80
2022/09/18 07:28:41;;;;;;;2.58;1.90;;;;;;;;;;5116895;27;20229;-79
2022/09/18 07:31:10;;;;;;;2.05;1.88;;;;;;;;;;5116410;27;20241;-80
2022/09/18 07:33:39;;;;;;;1.63;1.45;;;;;;;;;;5120894;27;20229;-80
2022/09/18 07:36:06;;;;;;;2.78;1.42;;;;;;;;;;5124053;27;20197;-80
2022/09/18 07:38:34;;;;;;;2.17;1.65;;;;;;;;;;5127123;27;20274;-79
2022/09/18 07:41:02;;;;;;;1.58;1.48;;;;;;;;;;5119643;27;20300;-80
2022/09/18 07:43:29;;;;;;;2.60;1.48;;;;;;;;;;5134694;27;20203;-80
2022/09/18 07:45:56;;;;;;;2.05;1.70;;;;;;;;;;5123350;27;20243;-80
2022/09/18 07:48:25;;;;;;;1.88;1.55;;;;;;;;;;5130373;27;20192;-80
2022/09/18 07:51:10;;;;;;;2.28;1.60;;;;;;;;;;5130392;27;20670;-80
2022/09/18 07:53:38;;;;;;;1.77;1.40;;;;;;;;;;5123652;27;20204;-79
2022/09/18 07:56:07;;;;;;;1.92;1.40;;;;;;;;;;5122505;27;20243;-79
2022/09/18 07:58:35;;;;;;;1.52;1.40;;;;;;;;;;5121363;27;20225;-79
2022/09/18 08:01:13;;;;;;;2.22;1.40;;;;;;;;;;5130880;27;20391;-80
2022/09/18 08:03:45;;;;;;;2.17;1.20;;;;;;;;;;5130282;27;20292;-79
2022/09/18 08:06:12;;;;;;;1.65;0.95;;;;;;;;;;5130833;27;20200;-80
2022/09/18 08:08:39;;;;;;;1.75;0.80;;;;;;;;;;5129212;27;20228;-79
2022/09/18 08:13:48;;;;;;;3.08;1.33;;;;;;;;;;5123813;27;20301;-79
2022/09/18 08:16:25;;;;;;;2.42;1.30;;;;;;;;;;5124965;27;20280;-80
2022/09/18 08:18:57;;;;;;;2.30;1.30;;;;;;;;;;5125242;27;20260;-79
2022/09/18 08:21:24;;;;;;;2.40;1.17;;;;;;;;;;5127389;27;20205;-79
2022/09/18 08:23:52;;;;;;;2.35;1.20;;;;;;;;;;5128037;27;20224;-79
2022/09/18 08:26:19;;;;;;;3.25;1.10;;;;;;;;;;5128605;27;20257;-79
2022/09/18 08:28:47;;;;;;;3.15;1.30;;;;;;;;;;5125654;27;20194;-78
2022/09/18 08:31:14;;;;;;;3.20;1.10;;;;;;;;;;5118538;27;20196;-78
2022/09/18 08:33:42;;;;;;;3.90;1.00;;;;;;;;;;5127531;27;20208;-77
2022/09/18 08:36:10;;;;;;;2.40;0.95;;;;;;;;;;5122903;27;20229;-79
2022/09/18 08:38:37;;;;;;;1.83;0.80;;;;;;;;;;5117013;27;20255;-78
2022/09/18 08:41:11;;;;;;;1.30;0.80;;;;;;;;;;5130331;27;20697;-78
2022/09/18 08:43:44;;;;;;;1.05;0.70;;;;;;;;;;5121196;27;20280;-79
2022/09/18 08:46:13;;;;;;;2.70;1.30;;;;;;;;;;5120920;27;20669;-79
2022/09/18 08:48:43;;;;;;;2.92;1.10;;;;;;;;;;5134955;27;20239;-79
2022/09/18 08:51:14;;;;;;;1.52;0.98;;;;;;;;;;5124271;27;20193;-79
2022/09/18 08:53:43;;;;;;;2.00;1.05;;;;;;;;;;5113874;28;20228;-80
2022/09/18 08:56:13;;;;;;;3.03;0.90;;;;;;;;;;5112741;28;20221;-79
2022/09/18 08:58:43;;;;;;;3.25;1.98;;;;;;;;;;5127492;27;20252;-80
2022/09/18 09:01:14;;;;;;;1.52;0.70;;;;;;;;;;5137647;27;20252;-79
2022/09/18 09:03:45;;;;;;;1.65;0.70;;;;;;;;;;5123245;27;20623;-79
2022/09/18 09:06:20;;;;;;;1.48;0.52;;;;;;;;;;5120241;27;20205;-79
2022/09/18 09:09:00;;;;;;;1.58;0.50;;;;;;;;;;5125254;27;20228;-80
2022/09/18 09:11:33;;;;;;;1.67;0.60;;;;;;;;;;5114181;27;20197;-80
2022/09/18 09:14:10;;;;;;;2.03;0.60;;;;;;;;;;5112804;28;20245;-79
2022/09/18 09:16:42;;;;;;;1.15;0.35;;;;;;;;;;5126180;27;20208;-79
2022/09/18 09:19:16;;;;;;;2.83;0.55;;;;;;;;;;5124973;27;20228;-78
2022/09/18 09:21:51;;;;;;;1.52;0.45;;;;;;;;;;5133734;27;20228;-78
2022/09/18 09:24:24;;;;;;;1.80;0.45;;;;;;;;;;5120163;27;20243;-75
2022/09/18 09:26:52;;;;;;;0.75;0.40;;;;;;;;;;5125497;27;20740;-74
2022/09/18 09:29:22;;;;;;;1.30;0.45;;;;;;;;;;5129737;27;20297;-81
2022/09/18 09:31:51;;;;;;;1.48;0.57;;;;;;;;;;5121500;27;20272;-81
2022/09/18 09:34:20;;;;;;;2.58;0.70;;;;;;;;;;5117380;27;20194;-80
2022/09/18 09:36:50;;;;;;;2.25;0.60;;;;;;;;;;5133563;27;20232;-80
2022/09/18 09:39:20;;;;;;;1.55;0.70;;;;;;;;;;5133431;27;20245;-80
2022/09/18 09:41:50;;;;;;;4.05;0.73;;;;;;;;;;5118535;27;20656;-80
2022/09/18 09:44:27;;;;;;;1.77;0.70;;;;;;;;;;5129818;27;20185;-80
2022/09/18 09:46:59;;;;;;;0.73;0.55;;;;;;;;;;5118588;27;20702;-81
2022/09/18 09:49:28;;;;;;;2.67;0.73;;;;;;;;;;5118633;27;20236;-81
2022/09/18 09:52:03;;;;;;;2.65;0.57;;;;;;;;;;5113677;28;20228;-80
2022/09/18 09:54:31;;;;;;;2.30;0.60;;;;;;;;;;5127876;27;20287;-80
2022/09/18 09:57:03;;;;;;;2.72;0.60;;;;;;;;;;5134282;27;20197;-80
2022/09/18 09:59:34;;;;;;;2.05;0.90;;;;;;;;;;5121064;27;20257;-80
2022/09/18 10:02:07;;;;;;;2.60;0.90;;;;;;;;;;5131530;27;20231;-80
2022/09/18 10:04:35;;;;;;;2.30;0.65;;;;;;;;;;5133588;27;20263;-82
2022/09/18 10:07:10;;;;;;;2.50;0.70;;;;;;;;;;5114985;27;20280;-81
2022/09/18 10:09:40;;;;;;;2.03;0.73;;;;;;;;;;5113685;27;20193;-81
2022/09/18 10:12:15;;;;;;;2.80;0.90;;;;;;;;;;5123505;27;20231;-81
2022/09/18 10:14:45;;;;;;;2.33;0.65;;;;;;;;;;5121856;27;20653;-82
2022/09/18 10:17:13;;;;;;;1.38;0.70;;;;;;;;;;5113725;28;20220;-81
2022/09/18 10:19:43;;;;;;;2.15;0.68;;;;;;;;;;5113316;28;20708;-81
2022/09/18 10:22:13;;;;;;;2.03;0.88;;;;;;;;;;5129208;27;20201;-82
2022/09/18 10:24:45;;;;;;;1.88;0.70;;;;;;;;;;5133681;27;20225;-81
2022/09/18 10:27:13;;;;;;;2.72;0.70;;;;;;;;;;5133472;27;20277;-81
2022/09/18 10:29:41;;;;;;;2.22;0.80;;;;;;;;;;5134126;27;20288;-82
2022/09/18 10:32:10;;;;;;;1.45;0.60;;;;;;;;;;5116712;27;20620;-81
2022/09/18 10:34:42;;;;;;;3.05;0.63;;;;;;;;;;5113066;28;20242;-81
2022/09/18 10:37:18;;;;;;;1.95;0.63;;;;;;;;;;5133424;27;20301;-83
2022/09/18 10:39:49;;;;;;;1.67;0.70;;;;;;;;;;5123591;27;20235;-81
2022/09/18 10:42:17;;;;;;;2.90;0.80;;;;;;;;;;5133803;27;20236;-81
2022/09/18 10:44:49;;;;;;;1.65;0.70;;;;;;;;;;5133901;27;20193;-81
2022/09/18 10:47:20;;;;;;;2.10;0.70;;;;;;;;;;5122792;27;20209;-81
2022/09/18 10:49:50;;;;;;;1.48;0.43;;;;;;;;;;5134029;27;20216;-81
2022/09/18 10:52:25;;;;;;;1.73;0.70;;;;;;;;;;5133801;27;20268;-81
2022/09/18 10:55:00;;;;;;;2.35;0.98;;;;;;;;;;5133589;27;20192;-81
2022/09/18 10:57:28;;;;;;;6.18;4.05;;;;;;;;;;5132119;27;20235;-81
2022/09/18 10:59:55;;;;;;;2.10;0.80;;;;;;;;;;5112773;28;20658;-81
2022/09/18 11:02:25;;;;;;;1.77;0.60;;;;;;;;;;5113204;28;20221;-81
2022/09/18 11:04:53;;;;;;;1.92;0.60;;;;;;;;;;5113162;28;20277;-81
2022/09/18 11:07:20;;;;;;;1.67;0.60;;;;;;;;;;5113165;28;20253;-81
2022/09/18 11:09:49;;;;;;;2.28;0.80;;;;;;;;;;5113062;28;20248;-81
2022/09/18 11:12:17;;;;;;;2.50;0.80;;;;;;;;;;5119844;28;20197;-81
2022/09/18 11:14:47;;;;;;;1.13;0.57;;;;;;;;;;5133299;27;20201;-81
2022/09/18 11:17:21;;;;;;;1.67;0.60;;;;;;;;;;5133129;27;20212;-81
2022/09/18 11:19:50;;;;;;;5.20;4.18;;;;;;;;;;5127747;27;20228;-81
2022/09/18 11:22:34;;;;;;;3.00;0.90;;;;;;;;;;5113259;28;20236;-81
2022/09/18 11:25:17;;;;;;;1.63;0.80;;;;;;;;;;5112846;28;20232;-81
2022/09/18 11:27:45;;;;;;;2.00;0.82;;;;;;;;;;5112369;28;20282;-81
2022/09/18 11:30:17;;;;;;;2.33;0.63;;;;;;;;;;5115349;28;20248;-82
2022/09/18 11:32:46;;;;;;;2.13;0.80;;;;;;;;;;5133137;27;20684;-81
2022/09/18 11:35:15;;;;;;;2.92;0.80;;;;;;;;;;5132838;27;20192;-82
2022/09/18 11:37:47;;;;;;;2.92;0.70;;;;;;;;;;5132982;27;20202;-81
2022/09/18 11:40:20;;;;;;;2.25;0.57;;;;;;;;;;5133174;27;20248;-82
2022/09/18 11:42:49;;;;;;;2.95;0.55;;;;;;;;;;5126074;27;20204;-81
2022/09/18 11:45:34;;;;;;;1.98;0.60;;;;;;;;;;5133217;28;20284;-81
2022/09/18 11:48:05;;;;;;;1.55;0.73;;;;;;;;;;5129918;27;20555;-81
2022/09/18 11:50:33;;;;;;;2.33;0.70;;;;;;;;;;5136068;27;20224;-81
2022/09/18 11:53:04;;;;;;;2.33;0.80;;;;;;;;;;5133855;27;20234;-81
2022/09/18 11:55:34;;;;;;;1.63;0.65;;;;;;;;;;5123807;27;20228;-81
2022/09/18 11:58:03;;;;;;;2.55;0.85;;;;;;;;;;5139470;27;20259;-80
2022/09/18 12:00:34;;;;;;;1.52;0.63;;;;;;;;;;5138241;27;20263;-80
2022/09/18 12:03:07;;;;;;;2.70;0.63;;;;;;;;;;5136921;27;20288;-81
2022/09/18 12:05:37;;;;;;;1.75;0.80;;;;;;;;;;5125030;27;20276;-80
2022/09/18 12:08:08;;;;;;;1.70;0.57;;;;;;;;;;5116101;27;20209;-80
2022/09/18 12:10:47;;;;;;;2.33;0.60;;;;;;;;;;5116082;28;20225;-80
2022/09/18 12:13:20;;;;;;;1.30;0.68;;;;;;;;;;5115630;28;20201;-80
2022/09/18 12:15:50;;;;;;;3.15;0.80;;;;;;;;;;5115965;28;20235;-80
2022/09/18 12:18:19;;;;;;;1.95;0.68;;;;;;;;;;5115832;27;20230;-80
2022/09/18 12:20:48;;;;;;;2.75;0.63;;;;;;;;;;5115378;27;20218;-80
2022/09/18 12:23:23;;;;;;;1.52;0.60;;;;;;;;;;5124460;27;20238;-80
2022/09/18 12:25:56;;;;;;;2.00;0.77;;;;;;;;;;5130820;27;20197;-79
2022/09/18 12:28:29;;;;;;;4.90;0.77;;;;;;;;;;5115577;28;20277;-79
2022/09/18 12:31:01;;;;;;;2.15;0.68;;;;;;;;;;5123842;27;20287;-81
2022/09/18 12:33:39;;;;;;;1.67;0.85;;;;;;;;;;5135661;27;20193;-80
2022/09/18 12:36:11;;;;;;;1.83;0.73;;;;;;;;;;5136186;27;20212;-80
2022/09/18 12:38:44;;;;;;;2.08;0.70;;;;;;;;;;5135821;27;20244;-80
2022/09/18 12:41:21;;;;;;;1.75;0.68;;;;;;;;;;5115544;28;20690;-81
2022/09/18 12:43:56;;;;;;;4.95;0.80;;;;;;;;;;5115260;28;20624;-80
2022/09/18 12:46:32;;;;;;;1.77;0.75;;;;;;;;;;5115298;28;20190;-80
2022/09/18 12:49:06;;;;;;;1.83;0.70;;;;;;;;;;5114933;28;20284;-80
2022/09/18 12:51:40;;;;;;;1.88;1.00;;;;;;;;;;5115155;28;20240;-80
2022/09/18 12:54:14;;;;;;;3.13;0.85;;;;;;;;;;5115168;28;20225;-81
2022/09/18 12:56:49;;;;;;;7.70;5.60;;;;;;;;;;5114477;28;20201;-81
2022/09/18 12:59:33;;;;;;;5.43;2.92;;;;;;;;;;5114895;28;20221;-81
2022/09/18 13:02:05;;;;;;;3.20;0.80;;;;;;;;;;5114574;28;20264;-81
2022/09/18 13:04:34;;;;;;;3.22;0.98;;;;;;;;;;5114764;28;20240;-81
2022/09/18 13:07:04;;;;;;;3.45;1.20;;;;;;;;;;5114770;28;20230;-81
2022/09/18 13:09:33;;;;;;;2.30;0.90;;;;;;;;;;5114883;28;20233;-81
2022/09/18 13:12:04;;;;;;;2.42;1.13;;;;;;;;;;5114406;28;20280;-81
2022/09/18 13:14:35;;;;;;;3.20;1.35;;;;;;;;;;5114408;28;20244;-81
2022/09/18 13:17:06;;;;;;;1.85;0.80;;;;;;;;;;5114489;28;20280;-81
2022/09/18 13:19:34;;;;;;;2.38;0.80;;;;;;;;;;5114822;28;20233;-81
2022/09/18 13:22:04;;;;;;;2.05;0.73;;;;;;;;;;5114523;28;20225;-81
2022/09/18 13:24:33;;;;;;;5.78;0.90;;;;;;;;;;5114679;28;20243;-81
2022/09/18 13:27:02;;;;;;;1.73;0.68;;;;;;;;;;5113987;28;20826;-81
2022/09/18 13:29:48;;;;;;;2.88;0.77;;;;;;;;;;5114372;28;20194;-81
2022/09/18 13:32:18;;;;;;;1.95;0.90;;;;;;;;;;5113821;28;20206;-81
2022/09/18 13:34:51;;;;;;;4.22;0.80;;;;;;;;;;5113978;28;20284;-81
2022/09/18 13:37:21;;;;;;;2.67;0.90;;;;;;;;;;5114335;28;20198;-81
2022/09/18 13:39:50;;;;;;;3.28;0.88;;;;;;;;;;5114071;28;20186;-81
2022/09/18 13:42:29;;;;;;;5.57;0.77;;;;;;;;;;5114061;28;20262;-81
2022/09/18 13:45:01;;;;;;;1.67;0.70;;;;;;;;;;5113987;28;20237;-81
2022/09/18 13:47:28;;;;;;;1.25;0.68;;;;;;;;;;5114232;28;20251;-81
2022/09/18 13:49:57;;;;;;;1.50;0.70;;;;;;;;;;5113647;28;20201;-81
2022/09/18 13:52:29;;;;;;;3.55;1.33;;;;;;;;;;5114113;28;20284;-81
2022/09/18 13:55:02;;;;;;;1.52;0.70;;;;;;;;;;5113425;28;20240;-82
2022/09/18 13:57:31;;;;;;;2.55;0.80;;;;;;;;;;5113058;28;20204;-82
2022/09/18 14:00:00;;;;;;;2.25;0.93;;;;;;;;;;5113352;28;20292;-81
2022/09/18 14:02:35;;;;;;;5.15;1.10;;;;;;;;;;5112282;28;20253;-81
2022/09/18 14:05:17;;;;;;;2.25;0.77;;;;;;;;;;5113507;28;20197;-81
2022/09/18 14:07:49;;;;;;;1.80;0.80;;;;;;;;;;5100319;28;20229;-81
2022/09/18 14:10:30;;;;;;;2.47;0.90;;;;;;;;;;5112707;28;20205;-81
2022/09/18 14:13:08;;;;;;;2.53;0.85;;;;;;;;;;5112452;28;20204;-81
2022/09/18 14:15:35;;;;;;;2.28;1.10;;;;;;;;;;5112557;28;20254;-81
2022/09/18 14:18:06;;;;;;;1.08;0.65;;;;;;;;;;5113484;28;20246;-81
2022/09/18 14:20:34;;;;;;;3.08;1.10;;;;;;;;;;5113543;28;20284;-81
2022/09/18 14:23:16;;;;;;;2.42;1.10;;;;;;;;;;5114326;27;20260;-81
2022/09/18 14:25:44;;;;;;;2.40;1.00;;;;;;;;;;5112986;28;20818;-81
2022/09/18 14:28:15;;;;;;;2.22;0.68;;;;;;;;;;5113249;28;20197;-82
2022/09/18 14:30:43;;;;;;;1.50;0.77;;;;;;;;;;5119852;27;20242;-81
2022/09/18 14:33:17;;;;;;;1.75;0.90;;;;;;;;;;5133210;27;20681;-81
2022/09/18 14:35:48;;;;;;;3.85;1.08;;;;;;;;;;5133578;27;20732;-81
2022/09/18 14:38:24;;;;;;;1.90;1.20;;;;;;;;;;5132817;27;20280;-81
2022/09/18 14:40:53;;;;;;;3.53;1.05;;;;;;;;;;5132457;27;20197;-81
2022/09/18 14:43:23;;;;;;;2.90;0.90;;;;;;;;;;5133182;27;20284;-81
2022/09/18 14:45:50;;;;;;;1.98;0.90;;;;;;;;;;5133768;27;20193;-81
2022/09/18 14:48:21;;;;;;;1.73;0.90;;;;;;;;;;5133403;27;20211;-82
2022/09/18 14:50:58;;;;;;;2.10;0.80;;;;;;;;;;5133685;27;20196;-81
2022/09/18 14:53:26;;;;;;;2.35;0.82;;;;;;;;;;5132363;27;20239;-82
2022/09/18 14:55:56;;;;;;;2.88;0.90;;;;;;;;;;5133515;27;20201;-81
2022/09/18 14:58:28;;;;;;;3.00;0.90;;;;;;;;;;5122708;27;20208;-81
2022/09/18 15:00:57;;;;;;;2.35;1.13;;;;;;;;;;5132492;27;20663;-81
2022/09/18 15:03:26;;;;;;;2.05;0.90;;;;;;;;;;5124622;27;20700;-81